createdAt,value
2022-12-31T00:02:28.592Z,28.27
2022-12-31T00:05:12.035Z,24.13
2022-12-31T00:07:56.574Z,29.60
2022-12-31T00:10:41.786Z,28.50
2022-12-31T00:13:24.875Z,25.43
2022-12-31T00:16:12.283Z,25.27
2022-12-31T00:18:59.293Z,26.80
2022-12-31T00:21:42.509Z,26.73
2022-12-31T00:24:31.066Z,27.23
2022-12-31T00:27:14.319Z,32.47
2022-12-31T00:30:04.119Z,29.33
2022-12-31T00:32:47.693Z,30.10
2022-12-31T00:35:30.908Z,35.63
2022-12-31T00:38:13.981Z,37.80
2022-12-31T00:40:58.378Z,38.93
2022-12-31T00:43:41.491Z,43.50
2022-12-31T00:46:25.259Z,51.70
2022-12-31T00:49:08.760Z,49.17
2022-12-31T00:51:51.830Z,54.00
2022-12-31T00:54:35.328Z,68.17
2022-12-31T00:57:19.700Z,54.57
2022-12-31T01:00:02.797Z,62.17
2022-12-31T01:02:46.066Z,70.97
2022-12-31T01:05:29.137Z,65.53
2022-12-31T01:08:12.214Z,66.37
2022-12-31T01:11:12.736Z,59.13
2022-12-31T01:13:59.266Z,64.00
2022-12-31T01:16:43.896Z,61.83
2022-12-31T01:19:30.414Z,60.90
2022-12-31T01:22:13.515Z,63.67
2022-12-31T01:24:56.611Z,71.33
2022-12-31T01:27:39.691Z,63.57
2022-12-31T01:30:24.208Z,71.30
2022-12-31T01:33:07.330Z,70.27
2022-12-31T01:35:50.822Z,65.43
2022-12-31T01:38:35.401Z,69.97
2022-12-31T01:41:21.556Z,67.57
2022-12-31T01:44:42.907Z,71.47
2022-12-31T01:47:36.849Z,74.80
2022-12-31T01:50:24.024Z,83.10
2022-12-31T01:53:09.694Z,83.00
2022-12-31T01:55:58.744Z,73.93
2022-12-31T01:58:45.012Z,74.50
2022-12-31T02:01:32.178Z,64.03
2022-12-31T02:04:17.781Z,62.83
2022-12-31T02:07:02.795Z,74.13
2022-12-31T02:09:45.991Z,52.63
2022-12-31T02:12:29.131Z,60.00
2022-12-31T02:15:12.697Z,58.90
2022-12-31T02:18:02.556Z,58.87
2022-12-31T02:21:20.708Z,52.50
2022-12-31T02:24:42.938Z,47.53
2022-12-31T02:27:42.550Z,39.93
2022-12-31T02:30:32.050Z,36.93
2022-12-31T02:33:20.807Z,34.20
2022-12-31T02:36:08.171Z,35.20
2022-12-31T02:38:51.467Z,31.97
2022-12-31T02:41:57.288Z,34.27
2022-12-31T02:44:42.430Z,31.83
2022-12-31T02:47:39.754Z,32.07
2022-12-31T02:50:34.742Z,29.53
2022-12-31T02:53:30.383Z,29.90
2022-12-31T02:56:20.972Z,31.27
2022-12-31T02:59:27.027Z,29.20
2022-12-31T03:02:17.230Z,25.40
2022-12-31T03:05:03.777Z,24.97
2022-12-31T03:07:47.481Z,24.33
2022-12-31T03:10:30.502Z,30.43
2022-12-31T03:13:12.479Z,29.30
2022-12-31T03:15:55.639Z,24.10
2022-12-31T03:18:52.444Z,24.47
2022-12-31T03:21:54.100Z,27.23
2022-12-31T03:24:54.956Z,25.13
2022-12-31T03:27:38.016Z,29.23
2022-12-31T03:30:23.162Z,29.47
2022-12-31T03:33:07.325Z,32.97
2022-12-31T03:35:51.076Z,31.53
2022-12-31T03:38:35.519Z,29.37
2022-12-31T03:41:18.508Z,32.17
2022-12-31T03:44:01.637Z,37.33
2022-12-31T03:46:44.681Z,32.77
2022-12-31T03:49:27.690Z,31.20
2022-12-31T03:52:10.652Z,30.27
2022-12-31T03:54:55.031Z,33.27
2022-12-31T03:57:38.142Z,27.53
2022-12-31T04:00:22.716Z,27.13
2022-12-31T04:03:05.856Z,32.63
2022-12-31T04:05:54.197Z,31.67
2022-12-31T04:08:37.320Z,23.60
2022-12-31T04:11:21.748Z,26.07
2022-12-31T04:14:04.788Z,31.60
2022-12-31T04:16:47.941Z,30.13
2022-12-31T04:19:32.469Z,27.80
2022-12-31T04:22:15.624Z,28.20
2022-12-31T04:24:58.671Z,29.93
2022-12-31T04:27:44.620Z,32.03
2022-12-31T04:30:27.703Z,36.07
2022-12-31T04:33:10.775Z,37.73
2022-12-31T04:35:53.795Z,36.70
2022-12-31T04:38:36.889Z,42.87
2022-12-31T04:41:20.883Z,42.60
2022-12-31T04:44:05.461Z,47.33
2022-12-31T04:46:48.742Z,46.17
2022-12-31T04:49:31.849Z,59.03
2022-12-31T04:52:14.950Z,65.10
2022-12-31T04:54:58.273Z,60.53
2022-12-31T04:57:42.846Z,65.90
2022-12-31T05:00:27.354Z,65.57
2022-12-31T05:03:10.430Z,70.43
2022-12-31T05:05:54.116Z,75.97
2022-12-31T05:08:37.174Z,75.43
2022-12-31T05:11:20.315Z,69.13
2022-12-31T05:14:03.310Z,68.63
2022-12-31T05:16:47.832Z,68.17
2022-12-31T05:19:30.927Z,60.33
2022-12-31T05:22:32.538Z,64.00
2022-12-31T05:25:15.917Z,58.40
2022-12-31T05:27:58.953Z,65.03
2022-12-31T05:30:42.248Z,66.77
2022-12-31T05:33:26.704Z,64.27
2022-12-31T05:36:09.994Z,66.93
2022-12-31T05:38:53.065Z,69.90
2022-12-31T05:41:36.098Z,69.13
2022-12-31T05:44:19.113Z,61.47
2022-12-31T05:47:02.216Z,65.90
2022-12-31T05:49:46.736Z,73.10
2022-12-31T05:52:30.079Z,81.33
2022-12-31T05:55:14.208Z,82.60
2022-12-31T05:57:57.226Z,72.00
2022-12-31T06:00:40.255Z,72.10
2022-12-31T06:03:23.291Z,69.70
2022-12-31T06:06:08.779Z,58.03
2022-12-31T06:08:51.953Z,56.50
2022-12-31T06:11:35.103Z,44.27
2022-12-31T06:14:18.315Z,47.53
2022-12-31T06:17:01.474Z,36.70
2022-12-31T06:19:44.494Z,47.60
2022-12-31T06:22:28.912Z,40.80
2022-12-31T06:25:11.973Z,44.33
2022-12-31T06:27:55.140Z,44.03
2022-12-31T06:30:38.792Z,39.17
2022-12-31T06:33:21.913Z,37.53
2022-12-31T06:36:07.067Z,29.13
2022-12-31T06:38:51.685Z,34.53
2022-12-31T06:41:34.795Z,29.10
2022-12-31T06:44:18.016Z,32.43
2022-12-31T06:47:01.202Z,32.60
2022-12-31T06:49:44.220Z,41.50
2022-12-31T06:52:27.361Z,35.37
2022-12-31T06:55:13.919Z,34.53
2022-12-31T06:57:57.694Z,33.70
2022-12-31T07:00:45.941Z,37.67
2022-12-31T07:03:38.056Z,30.33
2022-12-31T07:06:32.198Z,31.00
2022-12-31T07:09:23.531Z,29.67
2022-12-31T07:12:20.094Z,29.07
2022-12-31T07:15:13.513Z,29.60
2022-12-31T07:18:07.213Z,35.23
2022-12-31T07:20:50.816Z,32.00
2022-12-31T07:23:34.378Z,35.80
2022-12-31T07:26:25.077Z,34.53
2022-12-31T07:29:16.787Z,42.90
2022-12-31T07:32:09.910Z,51.83
2022-12-31T07:35:01.372Z,56.93
2022-12-31T07:37:54.176Z,46.00
2022-12-31T07:40:46.818Z,47.63
2022-12-31T07:43:37.730Z,44.10
2022-12-31T07:46:30.239Z,45.10
2022-12-31T07:49:15.044Z,44.83
2022-12-31T07:51:58.852Z,42.57
2022-12-31T07:54:41.934Z,44.20
2022-12-31T07:57:34.360Z,40.07
2022-12-31T08:00:18.049Z,40.50
2022-12-31T08:03:15.891Z,38.13
2022-12-31T08:06:09.671Z,39.27
2022-12-31T08:09:03.939Z,39.17
2022-12-31T08:11:55.693Z,41.43
2022-12-31T08:14:45.776Z,46.43
2022-12-31T08:17:29.579Z,41.20
2022-12-31T08:20:17.386Z,41.80
2022-12-31T08:23:21.479Z,38.90
2022-12-31T08:26:16.854Z,37.57
2022-12-31T08:29:12.964Z,35.20
2022-12-31T08:32:05.014Z,37.43
2022-12-31T08:34:57.749Z,35.17
2022-12-31T08:37:45.997Z,34.13
2022-12-31T08:40:34.930Z,36.10
2022-12-31T08:43:39.768Z,41.23
2022-12-31T08:46:27.592Z,40.23
2022-12-31T08:49:11.968Z,39.70
2022-12-31T08:51:55.676Z,36.97
2022-12-31T08:54:41.054Z,35.90
2022-12-31T08:57:31.239Z,38.93
2022-12-31T09:00:17.780Z,35.93
2022-12-31T09:03:28.846Z,36.57
2022-12-31T09:06:20.987Z,36.87
2022-12-31T09:09:12.033Z,39.57
2022-12-31T09:12:11.249Z,38.60
2022-12-31T09:15:01.891Z,51.30
2022-12-31T09:17:47.437Z,46.43
2022-12-31T09:20:42.858Z,50.50
2022-12-31T09:23:35.476Z,49.20
2022-12-31T09:26:36.554Z,47.13
2022-12-31T09:29:32.529Z,51.23
2022-12-31T09:32:26.627Z,53.13
2022-12-31T09:35:18.922Z,59.90
2022-12-31T09:38:11.628Z,56.07
2022-12-31T09:41:28.054Z,65.20
2022-12-31T09:44:49.801Z,70.03
2022-12-31T09:48:29.411Z,65.57
2022-12-31T09:51:30.132Z,70.17
2022-12-31T09:54:29.197Z,67.30
2022-12-31T09:57:36.234Z,63.73
2022-12-31T10:00:23.365Z,55.43
2022-12-31T10:03:35.708Z,54.13
2022-12-31T10:06:26.994Z,53.37
2022-12-31T10:09:37.634Z,49.10
2022-12-31T10:12:39.220Z,43.90
2022-12-31T10:15:55.069Z,41.00
2022-12-31T10:19:04.993Z,33.37
2022-12-31T10:22:03.602Z,28.73
2022-12-31T10:24:55.042Z,28.30
2022-12-31T10:27:53.259Z,22.97
2022-12-31T10:30:43.574Z,24.90
2022-12-31T10:33:39.396Z,30.83
2022-12-31T10:36:32.243Z,23.83
2022-12-31T10:39:29.419Z,24.87
2022-12-31T10:42:40.067Z,25.30
2022-12-31T10:45:47.641Z,22.13
2022-12-31T10:49:10.241Z,27.67
2022-12-31T10:52:34.536Z,25.57
2022-12-31T10:55:54.411Z,28.83
2022-12-31T10:59:08.995Z,28.80
2022-12-31T11:02:10.295Z,25.47
2022-12-31T11:05:41.496Z,26.40
2022-12-31T11:08:48.707Z,20.93
2022-12-31T11:11:46.325Z,23.17
2022-12-31T11:14:48.819Z,24.97
2022-12-31T11:17:47.009Z,24.90
2022-12-31T11:20:44.104Z,22.93
2022-12-31T11:23:37.236Z,22.47
2022-12-31T11:26:31.414Z,25.20
2022-12-31T11:29:44.447Z,26.53
2022-12-31T11:32:39.386Z,22.70
2022-12-31T11:35:31.353Z,25.03
2022-12-31T11:38:22.378Z,22.70
2022-12-31T11:41:11.283Z,25.67
2022-12-31T11:44:03.933Z,21.10
2022-12-31T11:47:06.639Z,21.93
2022-12-31T11:50:02.258Z,25.03
2022-12-31T11:52:59.079Z,26.53
2022-12-31T11:55:50.503Z,27.93
2022-12-31T11:58:33.709Z,25.97
2022-12-31T12:01:23.409Z,30.03
2022-12-31T12:04:06.830Z,26.10
2022-12-31T12:06:50.046Z,27.03
2022-12-31T12:09:36.843Z,29.67
2022-12-31T12:12:20.145Z,28.60
2022-12-31T12:15:09.618Z,36.70
2022-12-31T12:17:55.879Z,34.67
2022-12-31T12:20:41.305Z,34.17
2022-12-31T12:23:27.929Z,34.47
2022-12-31T12:26:29.676Z,33.85
2022-12-31T12:29:17.476Z,35.63
2022-12-31T12:32:03.167Z,36.30
2022-12-31T12:34:49.906Z,37.53
2022-12-31T12:37:37.095Z,40.53
2022-12-31T12:40:29.770Z,40.57
2022-12-31T12:43:25.148Z,38.90
2022-12-31T12:46:19.445Z,51.50
2022-12-31T12:49:04.379Z,39.67
2022-12-31T12:52:04.935Z,38.77
2022-12-31T12:55:05.353Z,45.13
2022-12-31T12:57:56.880Z,40.57
2022-12-31T13:00:50.177Z,39.77
2022-12-31T13:07:21.431Z,45.87
2022-12-31T13:10:24.947Z,40.00
2022-12-31T13:13:25.687Z,39.77
2022-12-31T13:16:18.002Z,46.60
2022-12-31T13:19:07.269Z,42.57
2022-12-31T13:21:55.092Z,49.13
2022-12-31T13:24:51.798Z,45.60
2022-12-31T13:27:39.041Z,46.07
2022-12-31T13:30:24.633Z,45.10
2022-12-31T13:33:17.896Z,41.07
2022-12-31T13:36:04.815Z,50.23
2022-12-31T13:38:52.655Z,45.80
2022-12-31T13:41:41.627Z,45.40
2022-12-31T13:44:30.076Z,46.57
2022-12-31T13:47:17.157Z,49.40
2022-12-31T13:50:14.255Z,49.33
2022-12-31T13:53:01.585Z,53.87
2022-12-31T13:55:56.687Z,49.60
2022-12-31T13:58:46.880Z,47.30
2022-12-31T14:01:35.817Z,50.23
2022-12-31T14:04:25.283Z,40.97
2022-12-31T14:07:16.080Z,42.80
2022-12-31T14:09:59.559Z,42.83
2022-12-31T14:12:53.172Z,39.43
2022-12-31T14:15:43.009Z,47.13
2022-12-31T14:18:34.679Z,38.33
2022-12-31T14:21:24.994Z,42.77
2022-12-31T14:24:15.744Z,44.70
2022-12-31T14:27:05.583Z,42.30
2022-12-31T14:29:54.281Z,57.30
2022-12-31T14:32:56.798Z,71.40
2022-12-31T14:35:53.670Z,81.33
2022-12-31T14:38:48.841Z,84.03
2022-12-31T14:41:46.236Z,88.93
2022-12-31T14:44:43.409Z,86.47
2022-12-31T14:47:38.769Z,86.70
2022-12-31T14:50:26.326Z,90.70
2022-12-31T14:53:18.378Z,77.03
2022-12-31T14:56:05.547Z,74.80
2022-12-31T14:58:58.407Z,63.67
2022-12-31T15:01:47.043Z,70.33
2022-12-31T15:04:35.399Z,61.40
2022-12-31T15:07:27.895Z,71.93
2022-12-31T15:10:22.805Z,67.70
2022-12-31T15:13:08.515Z,62.40
2022-12-31T15:16:15.920Z,59.13
2022-12-31T15:19:27.810Z,61.23
2022-12-31T15:22:32.572Z,62.37
2022-12-31T15:25:23.417Z,55.47
2022-12-31T15:28:09.276Z,60.00
2022-12-31T15:30:55.871Z,59.83
2022-12-31T15:33:42.080Z,57.93
2022-12-31T15:36:27.282Z,59.90
2022-12-31T15:39:28.249Z,52.23
2022-12-31T15:42:49.840Z,52.20
2022-12-31T15:45:38.458Z,58.83
2022-12-31T15:48:28.127Z,54.93
2022-12-31T15:51:17.756Z,52.43
2022-12-31T15:54:03.649Z,62.20
2022-12-31T15:56:48.714Z,55.50
2022-12-31T15:59:32.841Z,48.70
2022-12-31T16:02:22.663Z,48.57
2022-12-31T16:05:09.198Z,49.10
2022-12-31T16:07:55.887Z,50.10
2022-12-31T16:10:39.007Z,57.70
2022-12-31T16:13:25.408Z,57.53
2022-12-31T16:16:18.154Z,90.33
2022-12-31T16:22:09.077Z,86.07
2022-12-31T16:28:03.000Z,112.17
2022-12-31T16:30:46.569Z,98.27
2022-12-31T16:33:30.474Z,111.70
2022-12-31T16:36:21.745Z,115.07
2022-12-31T16:39:25.530Z,100.50
2022-12-31T16:42:20.160Z,101.33
2022-12-31T16:45:19.266Z,100.83
2022-12-31T16:48:13.008Z,103.73
2022-12-31T16:50:59.793Z,83.43
2022-12-31T16:53:43.718Z,84.50
2022-12-31T16:56:34.023Z,66.87
2022-12-31T17:02:23.107Z,64.23
2022-12-31T17:05:19.880Z,65.33
2022-12-31T17:08:24.114Z,53.37
2022-12-31T17:11:20.011Z,51.43
2022-12-31T17:14:15.313Z,48.57
2022-12-31T17:17:03.529Z,47.27
2022-12-31T17:19:51.599Z,44.57
2022-12-31T17:22:37.804Z,44.77
2022-12-31T17:25:24.990Z,40.17
2022-12-31T17:28:25.852Z,38.73
2022-12-31T17:31:33.281Z,36.63
2022-12-31T17:34:25.539Z,37.90
2022-12-31T17:37:28.905Z,39.23
2022-12-31T17:40:51.001Z,37.27
2022-12-31T17:43:37.088Z,35.80
2022-12-31T17:46:20.489Z,32.37
2022-12-31T17:49:04.708Z,35.20
2022-12-31T17:51:48.470Z,41.67
2022-12-31T17:54:33.165Z,39.57
2022-12-31T17:57:25.774Z,48.60
2022-12-31T18:00:17.649Z,52.43
2022-12-31T18:03:01.766Z,54.13
2022-12-31T18:05:45.019Z,43.20
2022-12-31T18:08:28.741Z,42.67
2022-12-31T18:11:17.555Z,40.50
2022-12-31T18:14:01.112Z,40.23
2022-12-31T18:16:44.833Z,36.40
2022-12-31T18:20:02.939Z,36.70
2022-12-31T18:22:31.523Z,40.10
2022-12-31T18:25:19.898Z,33.77
2022-12-31T18:28:12.160Z,39.80
2022-12-31T18:30:55.653Z,43.10
2022-12-31T18:33:42.209Z,32.53
2022-12-31T18:36:27.050Z,46.90
2022-12-31T18:39:11.372Z,38.57
2022-12-31T18:41:56.478Z,34.97
2022-12-31T18:44:41.397Z,34.30
2022-12-31T18:47:24.658Z,30.50
2022-12-31T18:50:09.754Z,26.23
2022-12-31T18:52:53.409Z,28.77
2022-12-31T18:55:40.526Z,27.53
2022-12-31T18:58:25.615Z,27.73
2022-12-31T19:01:27.300Z,26.30
2022-12-31T19:04:14.756Z,22.90
2022-12-31T19:06:58.736Z,27.83
2022-12-31T19:09:46.673Z,26.83
2022-12-31T19:12:30.691Z,30.57
2022-12-31T19:15:24.975Z,32.70
2022-12-31T19:18:11.248Z,32.87
2022-12-31T19:20:54.707Z,34.20
2022-12-31T19:23:38.011Z,38.83
2022-12-31T19:26:23.888Z,40.40
2022-12-31T19:29:16.240Z,46.30
2022-12-31T19:32:01.465Z,47.97
2022-12-31T19:34:46.508Z,43.53
2022-12-31T19:37:30.131Z,42.50
2022-12-31T19:40:16.660Z,48.97
2022-12-31T19:43:00.179Z,82.23
2022-12-31T19:45:47.284Z,73.83
2022-12-31T19:48:33.062Z,68.07
2022-12-31T19:51:20.848Z,63.60
2022-12-31T19:54:04.309Z,64.43
2022-12-31T19:56:47.543Z,79.73
2022-12-31T19:59:33.488Z,67.50
2022-12-31T20:02:16.914Z,67.83
2022-12-31T20:05:00.847Z,80.43
2022-12-31T20:07:46.074Z,79.33
2022-12-31T20:10:29.931Z,80.97
2022-12-31T20:13:13.837Z,83.27
2022-12-31T20:15:57.253Z,73.07
2022-12-31T20:18:44.718Z,80.17
2022-12-31T20:21:30.069Z,73.57
2022-12-31T20:24:14.666Z,71.07
2022-12-31T20:26:58.065Z,74.33
2022-12-31T20:29:41.522Z,59.03
2022-12-31T20:32:24.846Z,68.67
2022-12-31T20:35:09.129Z,73.03
2022-12-31T20:37:52.428Z,63.77
2022-12-31T20:40:42.891Z,61.10
2022-12-31T20:43:33.066Z,70.97
2022-12-31T20:46:20.077Z,81.83
2022-12-31T20:49:04.724Z,69.17
2022-12-31T20:51:52.062Z,82.10
2022-12-31T20:54:37.559Z,88.43
2022-12-31T20:57:22.307Z,115.10
2022-12-31T21:00:06.512Z,113.80
2022-12-31T21:02:57.877Z,120.17
2022-12-31T21:05:54.133Z,94.30
2022-12-31T21:08:37.779Z,91.53
2022-12-31T21:11:38.631Z,88.30
2022-12-31T21:14:26.327Z,129.93
2022-12-31T21:17:09.740Z,106.70
2022-12-31T21:19:53.114Z,101.77
2022-12-31T21:22:36.785Z,105.33
2022-12-31T21:25:20.108Z,112.43
2022-12-31T21:28:03.289Z,116.10
2022-12-31T21:30:48.641Z,106.13
2022-12-31T21:33:32.112Z,121.00
2022-12-31T21:36:16.081Z,107.27
2022-12-31T21:39:00.647Z,108.60
2022-12-31T21:41:54.442Z,102.10
2022-12-31T21:44:37.975Z,105.07
2022-12-31T21:47:47.162Z,91.63
2022-12-31T21:50:32.316Z,87.13
2022-12-31T21:53:21.829Z,95.40
2022-12-31T21:56:14.829Z,105.33
2022-12-31T21:59:15.886Z,98.73
2022-12-31T22:02:16.471Z,105.07
2022-12-31T22:05:02.692Z,112.67
2022-12-31T22:07:47.158Z,176.20
2022-12-31T22:10:34.942Z,641.23
2022-12-31T22:13:20.467Z,356.03
2022-12-31T22:16:05.774Z,427.73
2022-12-31T22:18:49.744Z,341.23
2022-12-31T22:21:34.395Z,383.43
2022-12-31T22:24:18.098Z,362.93
2022-12-31T22:27:28.234Z,393.20
2022-12-31T22:30:05.855Z,439.80
2022-12-31T22:32:49.533Z,419.10
2022-12-31T22:35:32.871Z,316.97
2022-12-31T22:38:17.441Z,370.53
2022-12-31T22:41:08.349Z,329.53
2022-12-31T22:44:00.238Z,264.73
2022-12-31T22:46:49.242Z,257.03
2022-12-31T22:49:32.714Z,252.40
2022-12-31T22:52:15.882Z,203.07
2022-12-31T22:55:00.540Z,318.23
2022-12-31T22:57:43.886Z,275.33
2022-12-31T23:00:39.762Z,144.47
2022-12-31T23:03:23.472Z,55.40
2022-12-31T23:06:06.882Z,47.40
2022-12-31T23:09:04.141Z,45.10
2022-12-31T23:11:48.840Z,33.50
2022-12-31T23:14:49.341Z,32.87
2022-12-31T23:17:51.072Z,31.27
2022-12-31T23:20:52.113Z,29.23
2022-12-31T23:23:35.473Z,38.10
2022-12-31T23:26:18.584Z,40.53
2022-12-31T23:29:03.721Z,35.17
2022-12-31T23:31:47.034Z,34.77
2022-12-31T23:34:30.585Z,32.80
2022-12-31T23:37:13.921Z,33.63
2022-12-31T23:39:58.116Z,37.47
2022-12-31T23:42:41.857Z,30.97
2022-12-31T23:45:32.679Z,28.87
2022-12-31T23:48:18.057Z,32.37
2022-12-31T23:51:01.807Z,36.53
2022-12-31T23:53:45.913Z,32.73
2022-12-31T23:56:29.417Z,36.43
2022-12-31T23:59:16.368Z,33.97
